Details From SBKP - Sao Paulo Viracopos
To SBRF - Recife Intl
Flight Number -
Tags decoded
Created
Modified
Stats Distance 1,138 nm / 2,108 km
Max Altitude 0 ft / 0 m
Waypoints 3
Social Downloads 2
Likes 0
Share VATSIM

Download

Looking for another format? Having issues loading an existing format? Contact us
Advertisement - Login to hide

Notes

Requested: SBKP UTGER UZ23 BHZ KOKSU UZ14 OBDUD MOSMU SBRF Unmatched points: UTGER UZ23 KOKSU UZ14 OBDUD MOSMU

Route

SBKP BHZ SBRF

ID Type Via Altitude Latitude Longitude Leg Dist Tot Dist Heading (true) Name
O SBKP APT - 0 ft / 0 m -23.00738˚ -47.13452˚ - 0 nm - Sao Paulo Viracopos
BHZ VOR - 0 ft / 0 m -19.83577˚ -44.00356˚ 258 nm 258 nm 43° / 42° BELO HORIZONTE VOR-DME
O SBRF APT - 0 ft / 0 m -8.12790˚ -34.92298˚ 879 nm 1138 nm 38° / 36° Recife Intl

Altitude Profile

Advertisement - Login to hide

Weather


0- 5 10 15 20 25 30 35+ Temperature / ° C

Clouds and Precipitation
Forecast for 2018-05-25 18:00 UTC. Updated 3 hours ago

Ground ~20,000 ft ~40,000 ft Winds

SBKP

Details ICAO SBKP (VCP)
Name Sao Paulo Viracopos
Region Brazil
Timezone America/Sao_Paulo (UTC-3.0)
Stats Elevation 2,170 ft / 661 m (AMSL)
Location -23.007383° -47.134522°
Runways 1
Magnetic Variation 21.249° W

METAR

SBKP 252000Z 16004KT 9999 SCT045 24/10 Q1021

Decode

TAF

TAF SBKP 251500Z 2518/2618 13010KT 9999 FEW040TN15/2609Z TX26/2617Z BECMG 2520/2522 CAVOK PROB30 2608/2610 6000 NSC BECMG 2613/2615 16005KT 9999 FEW040 RMK PGH

Decode

Departure Runways

ID Width Length Bearing (true) Bearing (mag) Surface Threshold Offset Overrun Length
15 148 ft / 45 m 10,639 ft / 3,243 m 127.91° 149.16° Asphalt 0 ft / 0 m 205 ft / 62 m
33 148 ft / 45 m 10,639 ft / 3,243 m 307.90° 329.15° Asphalt 0 ft / 0 m 205 ft / 62 m

SBRF

Details ICAO SBRF (REC)
Name Recife Intl
Region Brazil
Timezone America/Recife (UTC-3.0)
Stats Elevation 33 ft / 10 m (AMSL)
Location -8.127896° -34.922981°
Runways 2
Magnetic Variation 22.074° W

METAR

SBRF 252000Z 15011KT 9999 SCT020 SCT050 27/22 Q1013

Decode

TAF

TAF SBRF 251600Z 2518/2618 16010KT 8000 SCT020 SCT040 TN24/2607Z TX29/2614Z BECMG 2523/2601 19006KT PROB40 TEMPO 2605/2608 5000 RA BKN015 PROB40 TEMPO 2609/2611 5000 RA BKN015 BECMG 2611/2612 14012KT RMK PEU

Decode

Destination Runways

ID Width Length Bearing (true) Bearing (mag) Surface Threshold Offset Overrun Length
01 98 ft / 30 m 4,979 ft / 1,518 m 304.20° 326.27° Asphalt 300 ft / 91 m 0 ft / 0 m
18 148 ft / 45 m 9,915 ft / 3,022 m 161.91° 183.98° Asphalt 1,225 ft / 373 m 0 ft / 0 m
19 98 ft / 30 m 4,979 ft / 1,518 m 124.20° 146.27° Asphalt 300 ft / 91 m 0 ft / 0 m
36 148 ft / 45 m 9,915 ft / 3,022 m 341.91° 3.98° Asphalt 0 ft / 0 m 350 ft / 107 m

Approach Navaids

Runway Type Ident Frequency Range Bearing (true) Bearing (mag) Slope Elevation
18 Localiser IRF 110.30 MHz 18 nm / 33 km 161.91° 183.98° - 33 ft / 10 m (AMSL)
18 Glidescope IRF 110.30 MHz 10 nm / 19 km 161.91° 183.98° 3.00° 33 ft / 10 m (AMSL)

Popular Alternatives